Time;durP1;ratioP1;P1;durP2;ratioP2;P2;SDS_P1;SDS_P2;PMS_P1;PMS_P2;Temp;Humidity;BMP_temperature;BMP_pressure;BME280_temperature;BME280_humidity;BME280_pressure;Samples;Min_cycle;Max_cycle;Signal;HPM_P1;HPM_P2
2023/07/19 00:00:36;;;;;;;4.07;3.10;;;;;;;;;;5026586;28;20823;-81
2023/07/19 00:03:03;;;;;;;5.60;3.43;;;;;;;;;;5028422;28;20488;-81
2023/07/19 00:05:30;;;;;;;7.60;3.20;;;;;;;;;;5028868;28;20457;-81
2023/07/19 00:07:57;;;;;;;4.77;3.10;;;;;;;;;;5023776;28;20842;-80
2023/07/19 00:10:23;;;;;;;4.83;3.23;;;;;;;;;;5028979;28;20943;-81
2023/07/19 00:12:50;;;;;;;3.63;3.33;;;;;;;;;;5033759;28;20444;-81
2023/07/19 00:15:18;;;;;;;3.60;3.30;;;;;;;;;;5025575;28;20440;-81
2023/07/19 00:17:45;;;;;;;4.43;3.30;;;;;;;;;;5023688;28;20484;-81
2023/07/19 00:20:11;;;;;;;3.57;2.90;;;;;;;;;;5019253;28;20910;-82
2023/07/19 00:22:38;;;;;;;4.30;2.77;;;;;;;;;;5029135;28;20491;-81
2023/07/19 00:25:05;;;;;;;3.40;3.10;;;;;;;;;;5032739;28;20449;-81
2023/07/19 00:27:31;;;;;;;2.97;2.70;;;;;;;;;;5027058;28;20477;-81
2023/07/19 00:29:58;;;;;;;6.40;3.60;;;;;;;;;;5037648;28;20455;-81
2023/07/19 00:32:26;;;;;;;3.20;2.97;;;;;;;;;;5031967;28;20466;-81
2023/07/19 00:34:52;;;;;;;3.67;3.33;;;;;;;;;;5022476;28;20457;-80
2023/07/19 00:37:19;;;;;;;3.43;3.13;;;;;;;;;;5027830;28;20472;-80
2023/07/19 00:39:45;;;;;;;3.20;2.90;;;;;;;;;;5035952;28;20539;-80
2023/07/19 00:42:12;;;;;;;5.77;3.40;;;;;;;;;;5027603;28;20484;-80
2023/07/19 00:44:38;;;;;;;3.73;3.43;;;;;;;;;;5035853;28;20448;-80
2023/07/19 00:47:04;;;;;;;4.90;3.37;;;;;;;;;;5030845;28;20469;-80
2023/07/19 00:49:32;;;;;;;6.37;3.27;;;;;;;;;;5033082;28;20452;-81
2023/07/19 00:51:59;;;;;;;4.23;2.80;;;;;;;;;;5025462;28;20469;-81
2023/07/19 00:54:27;;;;;;;3.97;3.57;;;;;;;;;;5019192;28;20449;-81
2023/07/19 00:56:54;;;;;;;3.40;3.10;;;;;;;;;;5037095;28;20982;-81
2023/07/19 00:59:22;;;;;;;4.50;3.20;;;;;;;;;;5035920;28;20461;-81
2023/07/19 01:01:48;;;;;;;3.97;3.67;;;;;;;;;;5036727;28;20477;-81
2023/07/19 01:04:15;;;;;;;8.20;4.37;;;;;;;;;;5033486;28;20449;-81
2023/07/19 01:06:43;;;;;;;4.33;3.00;;;;;;;;;;5032956;28;20556;-81
2023/07/19 01:09:11;;;;;;;3.57;3.27;;;;;;;;;;5029039;28;21051;-81
2023/07/19 01:11:37;;;;;;;6.03;3.40;;;;;;;;;;5036298;28;20920;-81
2023/07/19 01:14:03;;;;;;;5.40;4.80;;;;;;;;;;5028824;28;20465;-81
2023/07/19 01:16:30;;;;;;;3.87;3.00;;;;;;;;;;5033143;28;20471;-80
2023/07/19 01:18:56;;;;;;;3.63;3.07;;;;;;;;;;5036541;28;20472;-81
2023/07/19 01:21:22;;;;;;;4.33;2.83;;;;;;;;;;5033361;28;21001;-80
2023/07/19 01:23:50;;;;;;;3.20;2.80;;;;;;;;;;5032776;28;20479;-81
2023/07/19 01:26:17;;;;;;;4.83;2.80;;;;;;;;;;5034818;28;20548;-81
2023/07/19 01:28:43;;;;;;;5.20;2.63;;;;;;;;;;5033106;28;20474;-81
2023/07/19 01:31:11;;;;;;;7.87;3.27;;;;;;;;;;5031097;28;20950;-81
2023/07/19 01:33:37;;;;;;;6.33;3.20;;;;;;;;;;5027800;28;20445;-81
2023/07/19 01:36:05;;;;;;;5.47;3.30;;;;;;;;;;5031058;28;20480;-81
2023/07/19 01:38:31;;;;;;;4.77;3.00;;;;;;;;;;5030572;28;20503;-80
2023/07/19 01:40:59;;;;;;;6.70;3.10;;;;;;;;;;5035597;28;20472;-80
2023/07/19 01:43:25;;;;;;;4.93;2.60;;;;;;;;;;5040223;28;20856;-81
2023/07/19 01:45:52;;;;;;;3.60;3.00;;;;;;;;;;5037699;28;20978;-81
2023/07/19 01:48:18;;;;;;;6.80;3.20;;;;;;;;;;5021872;28;20485;-81
2023/07/19 01:50:48;;;;;;;5.13;3.40;;;;;;;;;;5029628;28;20467;-81
2023/07/19 01:53:14;;;;;;;6.50;3.43;;;;;;;;;;5038628;28;20498;-81
2023/07/19 01:55:40;;;;;;;7.00;3.03;;;;;;;;;;5029600;28;20448;-81
2023/07/19 01:58:08;;;;;;;10.50;3.63;;;;;;;;;;5031155;28;20476;-81
2023/07/19 02:00:34;;;;;;;3.00;2.70;;;;;;;;;;5034518;28;20510;-80
2023/07/19 02:03:02;;;;;;;9.43;4.23;;;;;;;;;;5032322;28;20482;-80
2023/07/19 02:05:28;;;;;;;4.70;3.70;;;;;;;;;;5035292;28;20448;-80
2023/07/19 02:07:55;;;;;;;4.23;3.27;;;;;;;;;;5035307;28;20455;-81
2023/07/19 02:10:21;;;;;;;7.00;4.30;;;;;;;;;;5034314;28;20461;-82
2023/07/19 02:12:48;;;;;;;11.07;3.90;;;;;;;;;;5029414;28;20441;-81
2023/07/19 02:15:15;;;;;;;5.90;4.47;;;;;;;;;;5034185;28;20440;-80
2023/07/19 02:17:42;;;;;;;5.30;3.90;;;;;;;;;;5026480;28;20469;-81
2023/07/19 02:20:09;;;;;;;4.63;4.10;;;;;;;;;;5033027;28;20460;-80
2023/07/19 02:22:35;;;;;;;5.70;3.57;;;;;;;;;;5029377;28;21029;-81
2023/07/19 02:25:02;;;;;;;5.80;4.47;;;;;;;;;;5035350;28;20460;-80
2023/07/19 02:27:28;;;;;;;4.63;4.20;;;;;;;;;;5034850;28;20552;-82
2023/07/19 02:29:54;;;;;;;7.13;4.27;;;;;;;;;;5029832;28;20453;-80
2023/07/19 02:32:22;;;;;;;7.70;4.30;;;;;;;;;;5030744;28;20856;-81
2023/07/19 02:34:48;;;;;;;7.23;3.80;;;;;;;;;;5025039;28;20491;-81
2023/07/19 02:37:15;;;;;;;5.43;3.90;;;;;;;;;;5034158;28;21013;-81
2023/07/19 02:39:41;;;;;;;4.73;4.03;;;;;;;;;;5031352;28;20457;-81
2023/07/19 02:42:08;;;;;;;6.30;4.10;;;;;;;;;;5042268;28;20467;-81
2023/07/19 02:44:34;;;;;;;7.83;4.60;;;;;;;;;;5046500;28;20467;-81
2023/07/19 02:47:00;;;;;;;5.43;4.13;;;;;;;;;;5042897;28;20465;-80
2023/07/19 02:49:28;;;;;;;6.50;3.73;;;;;;;;;;5048536;28;20942;-81
2023/07/19 02:51:55;;;;;;;8.00;4.37;;;;;;;;;;5046708;28;20980;-81
2023/07/19 02:54:21;;;;;;;5.17;4.77;;;;;;;;;;5051526;28;20454;-81
2023/07/19 02:56:47;;;;;;;7.40;4.80;;;;;;;;;;5048973;28;20534;-81
2023/07/19 02:59:14;;;;;;;7.80;5.13;;;;;;;;;;5054544;28;20467;-79
2023/07/19 03:01:41;;;;;;;4.97;4.57;;;;;;;;;;5048571;28;20473;-81
2023/07/19 03:04:07;;;;;;;5.40;4.60;;;;;;;;;;5052462;28;20558;-81
2023/07/19 03:06:35;;;;;;;8.37;4.30;;;;;;;;;;5052486;28;21050;-81
2023/07/19 03:09:02;;;;;;;6.63;5.10;;;;;;;;;;5054428;28;20456;-81
2023/07/19 03:11:29;;;;;;;5.83;4.77;;;;;;;;;;5044639;28;20516;-81
2023/07/19 03:13:55;;;;;;;7.00;5.27;;;;;;;;;;5048252;28;20455;-81
2023/07/19 03:16:21;;;;;;;5.90;5.30;;;;;;;;;;5033735;28;20477;-81
2023/07/19 03:18:48;;;;;;;8.03;5.40;;;;;;;;;;5034445;28;20469;-81
2023/07/19 03:21:14;;;;;;;7.90;6.10;;;;;;;;;;5034429;28;21025;-81
2023/07/19 03:23:44;;;;;;;8.07;7.00;;;;;;;;;;5048798;28;20491;-80
2023/07/19 03:26:10;;;;;;;11.20;7.00;;;;;;;;;;5045166;28;20486;-79
2023/07/19 03:28:38;;;;;;;7.10;5.33;;;;;;;;;;5035883;28;20476;-80
2023/07/19 03:31:04;;;;;;;7.70;5.20;;;;;;;;;;5046606;28;20468;-81
2023/07/19 03:33:30;;;;;;;6.20;5.30;;;;;;;;;;5053983;28;20451;-79
2023/07/19 03:35:57;;;;;;;7.10;5.97;;;;;;;;;;5048613;28;20464;-80
2023/07/19 03:38:23;;;;;;;10.00;8.20;;;;;;;;;;5049031;28;20475;-81
2023/07/19 03:40:51;;;;;;;11.70;9.00;;;;;;;;;;5048914;28;20426;-79
2023/07/19 03:43:18;;;;;;;8.97;7.80;;;;;;;;;;5040784;28;20484;-80
2023/07/19 03:45:44;;;;;;;12.47;7.77;;;;;;;;;;5043916;28;20460;-79
2023/07/19 03:48:10;;;;;;;14.40;7.47;;;;;;;;;;5049294;28;20464;-80
2023/07/19 03:50:37;;;;;;;8.17;6.83;;;;;;;;;;5045937;28;20493;-79
2023/07/19 03:53:04;;;;;;;11.20;7.03;;;;;;;;;;5042947;28;20810;-79
2023/07/19 03:55:30;;;;;;;9.20;8.10;;;;;;;;;;5052420;28;20476;-80
2023/07/19 03:57:58;;;;;;;9.13;8.10;;;;;;;;;;5053353;28;20464;-79
2023/07/19 04:00:24;;;;;;;8.93;7.47;;;;;;;;;;5051018;28;20455;-80
2023/07/19 04:02:51;;;;;;;8.60;7.70;;;;;;;;;;5052166;28;20486;-79
2023/07/19 04:05:17;;;;;;;8.40;7.60;;;;;;;;;;5047676;28;20452;-80
2023/07/19 04:07:44;;;;;;;9.83;7.90;;;;;;;;;;5050498;28;20476;-79
2023/07/19 04:10:10;;;;;;;10.43;8.27;;;;;;;;;;5048487;28;20825;-79
2023/07/19 04:12:37;;;;;;;10.30;8.50;;;;;;;;;;5045249;28;20479;-79
2023/07/19 04:15:05;;;;;;;9.90;8.90;;;;;;;;;;5052118;28;20439;-79
2023/07/19 04:17:31;;;;;;;12.40;8.67;;;;;;;;;;5047042;28;20446;-79
2023/07/19 04:19:58;;;;;;;11.53;9.60;;;;;;;;;;5050410;28;20451;-79
2023/07/19 04:22:25;;;;;;;12.13;8.90;;;;;;;;;;5033103;28;20895;-79
2023/07/19 04:24:54;;;;;;;8.77;7.83;;;;;;;;;;5047032;28;20488;-79
2023/07/19 04:27:20;;;;;;;12.80;8.37;;;;;;;;;;5053031;28;20453;-79
2023/07/19 04:29:47;;;;;;;9.87;8.43;;;;;;;;;;5043747;28;20448;-81
2023/07/19 04:32:15;;;;;;;9.10;8.00;;;;;;;;;;5061727;28;20479;-79
2023/07/19 04:34:41;;;;;;;11.63;8.43;;;;;;;;;;5053214;28;20984;-79
2023/07/19 04:37:07;;;;;;;8.80;7.90;;;;;;;;;;5044500;28;20472;-79
2023/07/19 04:39:34;;;;;;;12.30;8.87;;;;;;;;;;5051710;28;20448;-80
2023/07/19 04:42:00;;;;;;;10.37;8.47;;;;;;;;;;5046426;28;20477;-80
2023/07/19 04:44:28;;;;;;;9.47;8.60;;;;;;;;;;5045613;28;20480;-79
2023/07/19 04:46:54;;;;;;;10.10;7.97;;;;;;;;;;5052708;28;20525;-79
2023/07/19 04:49:22;;;;;;;9.90;8.33;;;;;;;;;;5043982;28;20480;-79
2023/07/19 04:51:50;;;;;;;10.87;7.93;;;;;;;;;;5046144;28;20543;-79
2023/07/19 04:54:17;;;;;;;11.13;9.00;;;;;;;;;;5051666;28;20440;-79
2023/07/19 04:56:44;;;;;;;9.47;8.37;;;;;;;;;;5051431;28;20486;-78
2023/07/19 04:59:10;;;;;;;10.70;8.37;;;;;;;;;;5043032;28;20985;-80
2023/07/19 05:01:37;;;;;;;9.40;8.50;;;;;;;;;;5049960;28;20460;-81
2023/07/19 05:04:04;;;;;;;11.07;8.37;;;;;;;;;;5057197;28;20487;-82
2023/07/19 05:06:33;;;;;;;10.10;8.40;;;;;;;;;;5047031;28;20615;-81
2023/07/19 05:08:59;;;;;;;13.97;9.20;;;;;;;;;;5048507;28;20480;-81
2023/07/19 05:11:26;;;;;;;10.10;8.30;;;;;;;;;;5051384;28;20473;-81
2023/07/19 05:13:52;;;;;;;11.63;8.17;;;;;;;;;;5054082;28;20507;-80
2023/07/19 05:16:19;;;;;;;11.27;8.10;;;;;;;;;;5052438;28;20467;-80
2023/07/19 05:18:46;;;;;;;10.27;8.50;;;;;;;;;;5047792;28;20467;-81
2023/07/19 05:21:13;;;;;;;14.20;9.30;;;;;;;;;;5052709;28;20884;-81
2023/07/19 05:23:41;;;;;;;10.70;7.80;;;;;;;;;;5034361;28;20476;-79
2023/07/19 05:26:07;;;;;;;8.87;8.07;;;;;;;;;;5033252;28;20472;-78
2023/07/19 05:28:34;;;;;;;10.40;7.50;;;;;;;;;;5054996;28;20464;-81
2023/07/19 05:31:03;;;;;;;9.13;6.33;;;;;;;;;;5050570;28;20474;-78
2023/07/19 05:33:30;;;;;;;11.00;7.73;;;;;;;;;;5035030;28;20445;-79
2023/07/19 05:35:56;;;;;;;9.10;6.43;;;;;;;;;;5039870;28;20479;-82
2023/07/19 05:38:22;;;;;;;7.97;6.73;;;;;;;;;;5044093;28;20459;-78
2023/07/19 05:40:50;;;;;;;7.63;6.70;;;;;;;;;;5045116;28;20467;-81
2023/07/19 05:43:16;;;;;;;12.40;8.40;;;;;;;;;;5047338;28;20907;-80
2023/07/19 05:45:43;;;;;;;7.90;5.90;;;;;;;;;;5057109;28;20514;-80
2023/07/19 05:48:09;;;;;;;8.03;5.70;;;;;;;;;;5034905;28;21006;-80
2023/07/19 05:50:36;;;;;;;6.47;5.77;;;;;;;;;;5030022;28;20427;-80
2023/07/19 05:53:03;;;;;;;10.10;6.90;;;;;;;;;;5027987;28;20955;-80
2023/07/19 05:55:29;;;;;;;8.37;6.10;;;;;;;;;;5038376;28;20954;-80
2023/07/19 05:57:57;;;;;;;9.80;5.87;;;;;;;;;;5027407;28;20451;-80
2023/07/19 06:00:28;;;;;;;6.13;5.37;;;;;;;;;;5035348;28;20453;-81
2023/07/19 06:02:54;;;;;;;7.73;6.77;;;;;;;;;;5023788;28;20461;-80
2023/07/19 06:05:21;;;;;;;8.00;6.67;;;;;;;;;;5028774;28;20495;-80
2023/07/19 06:07:48;;;;;;;7.63;6.83;;;;;;;;;;5055642;28;20456;-83
2023/07/19 06:10:15;;;;;;;8.43;7.63;;;;;;;;;;5049319;28;20455;-80
2023/07/19 06:12:43;;;;;;;8.83;7.83;;;;;;;;;;5039819;28;20473;-80
2023/07/19 06:15:11;;;;;;;11.00;7.57;;;;;;;;;;5040209;28;20480;-81
2023/07/19 06:17:40;;;;;;;10.17;7.27;;;;;;;;;;5048190;28;20458;-79
2023/07/19 06:20:10;;;;;;;12.17;8.00;;;;;;;;;;5051655;28;20448;-80
2023/07/19 06:22:38;;;;;;;10.47;8.33;;;;;;;;;;5050611;28;20471;-80
2023/07/19 06:25:04;;;;;;;17.40;9.47;;;;;;;;;;5055166;28;20479;-79
2023/07/19 06:27:31;;;;;;;8.00;7.20;;;;;;;;;;5031991;28;20468;-80
2023/07/19 06:29:57;;;;;;;9.93;8.23;;;;;;;;;;5029947;28;20449;-83
2023/07/19 06:32:25;;;;;;;9.00;8.07;;;;;;;;;;5038810;28;20496;-80
2023/07/19 06:34:51;;;;;;;8.53;7.27;;;;;;;;;;5034569;28;20457;-81
2023/07/19 06:37:18;;;;;;;9.73;8.73;;;;;;;;;;5034564;28;21029;-81
2023/07/19 06:39:46;;;;;;;8.67;7.40;;;;;;;;;;5031531;28;20966;-81
2023/07/19 06:42:12;;;;;;;8.30;7.27;;;;;;;;;;5028316;28;20559;-82
2023/07/19 06:44:39;;;;;;;9.27;7.47;;;;;;;;;;5028629;28;20485;-80
2023/07/19 06:47:05;;;;;;;9.70;7.63;;;;;;;;;;5025578;28;20469;-80
2023/07/19 06:49:33;;;;;;;7.63;6.43;;;;;;;;;;5035007;28;20619;-82
2023/07/19 06:51:59;;;;;;;8.30;6.40;;;;;;;;;;5028837;28;20476;-82
2023/07/19 06:54:26;;;;;;;8.00;7.20;;;;;;;;;;5034726;28;21018;-81
2023/07/19 06:56:52;;;;;;;9.27;6.93;;;;;;;;;;5032835;28;20469;-81
2023/07/19 06:59:18;;;;;;;11.37;6.37;;;;;;;;;;5031519;28;20477;-82
2023/07/19 07:01:45;;;;;;;6.03;5.43;;;;;;;;;;5045625;28;20466;-80
2023/07/19 07:04:11;;;;;;;6.80;6.20;;;;;;;;;;5029474;28;20504;-81
2023/07/19 07:06:39;;;;;;;8.10;6.33;;;;;;;;;;5034337;28;20465;-79
2023/07/19 07:09:05;;;;;;;8.57;6.23;;;;;;;;;;5032750;28;20477;-79
2023/07/19 07:11:31;;;;;;;8.03;6.43;;;;;;;;;;5031431;28;20465;-79
2023/07/19 07:13:58;;;;;;;7.87;6.50;;;;;;;;;;5033092;28;20449;-79
2023/07/19 07:16:24;;;;;;;11.70;6.40;;;;;;;;;;5022203;28;20467;-80
2023/07/19 07:18:50;;;;;;;10.13;6.40;;;;;;;;;;5027509;28;20493;-81
2023/07/19 07:21:17;;;;;;;11.27;7.70;;;;;;;;;;5022397;28;20472;-81
2023/07/19 07:23:45;;;;;;;11.80;7.33;;;;;;;;;;5027629;28;20450;-82
2023/07/19 07:26:11;;;;;;;8.57;6.73;;;;;;;;;;5027510;28;20470;-81
2023/07/19 07:28:37;;;;;;;10.03;6.87;;;;;;;;;;5029201;28;20500;-81
2023/07/19 07:31:05;;;;;;;9.87;6.60;;;;;;;;;;5029496;28;20469;-82
2023/07/19 07:33:32;;;;;;;9.90;6.93;;;;;;;;;;5034271;28;20865;-79
2023/07/19 07:35:58;;;;;;;7.20;6.20;;;;;;;;;;5029071;28;20464;-80
2023/07/19 07:38:24;;;;;;;10.00;7.43;;;;;;;;;;5033918;28;21077;-79
2023/07/19 07:40:58;;;;;;;10.80;7.73;;;;;;;;;;5030710;28;20985;-80
2023/07/19 07:43:24;;;;;;;9.80;6.80;;;;;;;;;;5025612;28;20452;-80
2023/07/19 07:45:54;;;;;;;10.60;7.37;;;;;;;;;;5031842;28;20547;-80
2023/07/19 07:48:21;;;;;;;8.10;7.30;;;;;;;;;;5033631;28;20476;-82
2023/07/19 07:50:49;;;;;;;11.97;7.63;;;;;;;;;;5033957;28;20476;-81
2023/07/19 07:53:15;;;;;;;9.03;8.03;;;;;;;;;;5034724;28;20520;-80
2023/07/19 07:55:42;;;;;;;12.63;8.90;;;;;;;;;;5033823;28;20484;-79
2023/07/19 07:58:10;;;;;;;10.30;7.73;;;;;;;;;;5025956;28;20473;-80
2023/07/19 08:00:36;;;;;;;15.10;9.70;;;;;;;;;;5025536;28;20457;-80
2023/07/19 08:03:03;;;;;;;10.23;9.13;;;;;;;;;;5024227;28;20445;-80
2023/07/19 08:05:29;;;;;;;11.60;9.50;;;;;;;;;;5030697;28;20492;-83
2023/07/19 08:07:56;;;;;;;13.63;9.73;;;;;;;;;;5030718;28;20464;-80
2023/07/19 08:10:22;;;;;;;14.47;9.77;;;;;;;;;;5033958;28;20467;-81
2023/07/19 08:12:48;;;;;;;17.07;9.97;;;;;;;;;;5031209;28;20454;-80
2023/07/19 08:15:16;;;;;;;10.17;9.17;;;;;;;;;;5026512;28;20441;-80
2023/07/19 08:17:44;;;;;;;11.40;10.20;;;;;;;;;;5034492;28;20480;-80
2023/07/19 08:20:11;;;;;;;14.07;11.33;;;;;;;;;;5054570;28;20454;-80
2023/07/19 08:22:39;;;;;;;12.93;10.53;;;;;;;;;;5035440;28;20473;-81
2023/07/19 08:25:06;;;;;;;11.27;10.10;;;;;;;;;;5055910;28;20476;-79
2023/07/19 08:27:33;;;;;;;12.50;11.20;;;;;;;;;;5054438;28;20471;-82
2023/07/19 08:30:00;;;;;;;15.27;11.23;;;;;;;;;;5043070;28;20448;-81
2023/07/19 08:32:28;;;;;;;13.77;12.20;;;;;;;;;;5032716;28;20468;-80
2023/07/19 08:34:54;;;;;;;12.20;10.50;;;;;;;;;;5029921;28;20954;-80
2023/07/19 08:37:20;;;;;;;18.63;12.33;;;;;;;;;;5036387;28;20473;-78
2023/07/19 08:39:47;;;;;;;14.40;12.90;;;;;;;;;;5028913;28;20831;-79
2023/07/19 08:42:14;;;;;;;15.20;11.87;;;;;;;;;;5037824;28;20534;-80
2023/07/19 08:44:40;;;;;;;11.93;10.70;;;;;;;;;;5018514;28;20492;-79
2023/07/19 08:47:11;;;;;;;11.00;10.00;;;;;;;;;;5038847;28;20484;-80
2023/07/19 08:49:39;;;;;;;15.50;11.23;;;;;;;;;;5034654;28;20503;-80
2023/07/19 08:52:07;;;;;;;12.63;11.27;;;;;;;;;;5032045;28;20999;-79
2023/07/19 08:54:34;;;;;;;12.20;9.63;;;;;;;;;;5020342;28;20544;-79
2023/07/19 08:57:00;;;;;;;12.07;10.80;;;;;;;;;;5034684;28;20487;-79
2023/07/19 08:59:26;;;;;;;10.33;9.10;;;;;;;;;;5035380;28;20515;-81
2023/07/19 09:01:53;;;;;;;10.00;8.10;;;;;;;;;;5031245;28;20476;-82
2023/07/19 09:04:19;;;;;;;13.10;10.50;;;;;;;;;;5031914;28;20484;-80
2023/07/19 09:06:49;;;;;;;10.80;9.13;;;;;;;;;;5033132;28;21000;-80
2023/07/19 09:09:15;;;;;;;9.27;8.30;;;;;;;;;;5033821;28;20966;-82
2023/07/19 09:11:43;;;;;;;10.97;8.07;;;;;;;;;;5029303;28;20480;-80
2023/07/19 09:14:09;;;;;;;9.27;6.47;;;;;;;;;;5022464;28;20449;-82
2023/07/19 09:16:35;;;;;;;;;;;;;;;;;;5036857;28;20816;-78
2023/07/19 09:19:02;;;;;;;;;;;;;;;;;;5029312;28;19948;-79
2023/07/19 09:21:28;;;;;;;;;;;;;;;;;;5029944;28;19922;-78
2023/07/19 09:23:54;;;;;;;;;;;;;;;;;;5034191;28;20019;-80
2023/07/19 09:26:20;;;;;;;;;;;;;;;;;;5036740;28;19928;-80
2023/07/19 09:28:47;;;;;;;;;;;;;;;;;;5031878;28;20403;-81
2023/07/19 09:31:15;;;;;;;;;;;;;;;;;;5035696;28;19921;-80
2023/07/19 09:33:41;;;;;;;;;;;;;;;;;;5036305;28;19921;-80
2023/07/19 09:36:08;;;;;;;;;;;;;;;;;;5029156;28;19921;-79
2023/07/19 09:38:34;;;;;;;;;;;;;;;;;;5029648;28;19925;-79
2023/07/19 09:41:00;;;;;;;;;;;;;;;;;;5025458;28;19928;-79
2023/07/19 09:43:27;;;;;;;;;;;;;;;;;;5037912;28;19921;-79
2023/07/19 09:45:53;;;;;;;;;;;;;;;;;;5035818;28;19921;-80
2023/07/19 09:48:19;;;;;;;;;;;;;;;;;;5037669;28;19928;-79
2023/07/19 09:50:46;;;;;;;;;;;;;;;;;;5026123;28;20419;-80
2023/07/19 09:53:12;;;;;;;;;;;;;;;;;;5029638;28;19928;-79
2023/07/19 09:55:38;;;;;;;;;;;;;;;;;;5034403;28;19944;-78
2023/07/19 09:58:04;;;;;;;;;;;;;;;;;;5036854;28;19955;-79
2023/07/19 10:00:31;;;;;;;;;;;;;;;;;;5035962;28;19928;-79
2023/07/19 10:02:57;;;;;;;;;;;;;;;;;;5040029;28;19928;-79
2023/07/19 10:05:23;;;;;;;;;;;;;;;;;;5033180;28;19975;-79
2023/07/19 10:07:50;;;;;;;;;;;;;;;;;;5054590;28;19920;-78
2023/07/19 10:10:16;;;;;;;;;;;;;;;;;;5041676;28;19944;-79
2023/07/19 10:12:42;;;;;;;;;;;;;;;;;;5057618;28;19921;-79
2023/07/19 10:15:09;;;;;;;;;;;;;;;;;;5041510;28;19992;-79
2023/07/19 10:17:36;;;;;;;;;;;;;;;;;;5043477;28;19921;-79
2023/07/19 10:20:02;;;;;;;;;;;;;;;;;;5056547;28;19928;-79
2023/07/19 10:22:28;;;;;;;;;;;;;;;;;;5053087;28;19959;-78
2023/07/19 10:24:55;;;;;;;;;;;;;;;;;;5045143;28;19925;-80
2023/07/19 10:27:21;;;;;;;;;;;;;;;;;;5052926;28;19928;-80
2023/07/19 10:29:48;;;;;;;;;;;;;;;;;;5052543;28;19982;-79
2023/07/19 10:32:14;;;;;;;;;;;;;;;;;;5046526;28;19924;-82
2023/07/19 10:34:40;;;;;;;;;;;;;;;;;;5055871;28;19921;-81
2023/07/19 10:37:07;;;;;;;;;;;;;;;;;;5054779;28;19927;-79
2023/07/19 10:39:33;;;;;;;;;;;;;;;;;;5050316;28;19948;-80
2023/07/19 10:41:59;;;;;;;;;;;;;;;;;;5054771;28;19920;-80
2023/07/19 10:44:26;;;;;;;;;;;;;;;;;;5049761;28;19921;-80
2023/07/19 10:46:52;;;;;;;;;;;;;;;;;;5039305;28;19927;-80
2023/07/19 10:49:18;;;;;;;;;;;;;;;;;;5054966;28;20015;-81
2023/07/19 10:51:44;;;;;;;;;;;;;;;;;;5056210;28;19932;-78
2023/07/19 10:54:10;;;;;;;;;;;;;;;;;;5047662;28;19921;-80
2023/07/19 10:56:37;;;;;;;;;;;;;;;;;;5048490;28;19928;-80
2023/07/19 10:59:04;;;;;;;;;;;;;;;;;;5050982;28;19921;-80
2023/07/19 11:01:30;;;;;;;;;;;;;;;;;;5045478;28;19927;-79
2023/07/19 11:03:56;;;;;;;;;;;;;;;;;;5042373;28;19921;-81
2023/07/19 11:06:22;;;;;;;;;;;;;;;;;;5046115;28;20368;-79
2023/07/19 11:08:50;;;;;;;;;;;;;;;;;;5023863;28;19921;-82
2023/07/19 11:11:16;;;;;;;;;;;;;;;;;;5033408;28;19944;-80
2023/07/19 11:13:44;;;;;;;;;;;;;;;;;;5035773;28;19921;-80
2023/07/19 11:16:10;;;;;;;;;;;;;;;;;;5028357;28;20387;-81
2023/07/19 11:18:36;;;;;;;;;;;;;;;;;;5032350;28;19957;-80
2023/07/19 11:21:02;;;;;;;;;;;;;;;;;;5029200;28;19921;-81
2023/07/19 11:23:29;;;;;;;;;;;;;;;;;;5023956;28;19921;-81
2023/07/19 11:25:55;;;;;;;;;;;;;;;;;;5026318;28;19921;-80
2023/07/19 11:28:21;;;;;;;;;;;;;;;;;;5035799;28;19921;-81
2023/07/19 11:30:47;;;;;;;;;;;;;;;;;;5031064;28;19921;-81
2023/07/19 11:33:13;;;;;;;;;;;;;;;;;;5035882;28;19921;-82
2023/07/19 11:35:40;;;;;;;;;;;;;;;;;;5035576;28;19921;-81
2023/07/19 11:38:06;;;;;;;;;;;;;;;;;;5034727;28;19928;-80
2023/07/19 11:40:32;;;;;;;;;;;;;;;;;;5030210;28;19925;-79
2023/07/19 11:42:58;;;;;;;;;;;;;;;;;;5034220;28;19929;-82
2023/07/19 11:45:25;;;;;;;;;;;;;;;;;;5017456;28;19926;-81
2023/07/19 11:47:51;;;;;;;;;;;;;;;;;;5031588;28;19921;-81
2023/07/19 11:50:18;;;;;;;;;;;;;;;;;;5028168;28;19975;-81
2023/07/19 11:52:44;;;;;;;;;;;;;;;;;;5035496;28;19921;-80
2023/07/19 11:55:11;;;;;;;;;;;;;;;;;;5029641;28;19979;-81
2023/07/19 11:57:37;;;;;;;;;;;;;;;;;;5027334;28;20391;-81
2023/07/19 12:00:04;;;;;;;;;;;;;;;;;;5032394;28;19921;-79
2023/07/19 12:02:31;;;;;;;;;;;;;;;;;;5024310;28;19975;-81
2023/07/19 12:04:57;;;;;;;;;;;;;;;;;;5036010;28;19920;-80
2023/07/19 12:07:23;;;;;;;;;;;;;;;;;;5032346;28;19928;-80
2023/07/19 12:09:49;;;;;;;;;;;;;;;;;;5029642;28;19921;-81
2023/07/19 12:12:16;;;;;;;;;;;;;;;;;;5024352;28;19925;-81
2023/07/19 12:14:42;;;;;;;;;;;;;;;;;;5033826;28;19921;-81
2023/07/19 12:17:08;;;;;;;;;;;;;;;;;;5032783;28;20375;-81
2023/07/19 12:19:34;;;;;;;;;;;;;;;;;;5025586;28;19921;-81
2023/07/19 12:22:04;;;;;;;;;;;;;;;;;;5030979;28;20361;-82
2023/07/19 12:24:29;;;;;;;;;;;;;;;;;;5032197;28;19921;-81
2023/07/19 12:26:57;;;;;;;;;;;;;;;;;;5033627;28;19929;-80
2023/07/19 12:29:25;;;;;;;;;;;;;;;;;;5031243;28;19921;-81
2023/07/19 12:31:51;;;;;;;;;;;;;;;;;;5027324;28;19926;-81
2023/07/19 12:34:20;;;;;;;;;;;;;;;;;;5035178;28;19928;-80
2023/07/19 12:36:47;;;;;;;;;;;;;;;;;;5020969;28;19939;-80
2023/07/19 12:39:13;;;;;;;;;;;;;;;;;;5028635;28;19953;-80
2023/07/19 12:41:40;;;;;;;;;;;;;;;;;;5033819;28;19952;-80
2023/07/19 12:44:06;;;;;;;;;;;;;;;;;;5028903;28;19925;-80
2023/07/19 12:46:32;;;;;;;;;;;;;;;;;;5034030;28;20371;-80
2023/07/19 12:48:58;;;;;;;;;;;;;;;;;;5033860;28;19929;-79
2023/07/19 12:51:24;;;;;;;;;;;;;;;;;;5019990;28;20398;-80
2023/07/19 12:53:50;;;;;;;;;;;;;;;;;;5029956;28;20375;-80
2023/07/19 12:56:17;;;;;;;;;;;;;;;;;;5030612;28;19921;-80
2023/07/19 12:58:43;;;;;;;;;;;;;;;;;;5033010;28;19921;-80
2023/07/19 13:01:09;;;;;;;;;;;;;;;;;;5031884;28;19928;-80
2023/07/19 13:03:35;;;;;;;;;;;;;;;;;;5032164;28;19925;-80
2023/07/19 13:06:01;;;;;;;;;;;;;;;;;;5030830;28;19944;-80
2023/07/19 13:08:29;;;;;;;;;;;;;;;;;;5034834;28;19928;-79
2023/07/19 13:10:55;;;;;;;;;;;;;;;;;;5017144;28;19972;-81
2023/07/19 13:13:21;;;;;;;;;;;;;;;;;;5028322;28;19967;-80
2023/07/19 13:15:47;;;;;;;;;;;;;;;;;;5031704;28;19921;-80
2023/07/19 13:18:13;;;;;;;;;;;;;;;;;;5030155;28;19928;-80
2023/07/19 13:20:41;;;;;;;;;;;;;;;;;;5031649;28;19921;-80
2023/07/19 13:23:07;;;;;;;;;;;;;;;;;;5028561;28;19929;-81
2023/07/19 13:25:34;;;;;;;;;;;;;;;;;;5034171;28;19921;-80
2023/07/19 13:28:01;;;;;;;;;;;;;;;;;;5037468;28;19928;-80
2023/07/19 13:30:27;;;;;;;;;;;;;;;;;;5035565;28;19921;-81
2023/07/19 13:32:53;;;;;;;;;;;;;;;;;;5032135;28;19983;-80
2023/07/19 13:35:20;;;;;;;;;;;;;;;;;;5026064;28;19956;-81
2023/07/19 13:37:46;;;;;;;;;;;;;;;;;;5035425;28;19932;-80
2023/07/19 13:40:12;;;;;;;;;;;;;;;;;;5037056;28;20387;-79
2023/07/19 13:42:40;;;;;;;4.60;3.10;;;;;;;;;;5036077;28;20724;-81
2023/07/19 13:45:07;;;;;;;4.30;3.27;;;;;;;;;;5035665;28;20456;-81
2023/07/19 13:47:35;;;;;;;9.07;3.87;;;;;;;;;;5033793;28;20469;-81
2023/07/19 13:50:01;;;;;;;4.30;2.70;;;;;;;;;;5031000;28;20854;-80
2023/07/19 13:52:28;;;;;;;6.80;3.57;;;;;;;;;;5024488;28;20983;-81
2023/07/19 13:54:54;;;;;;;2.90;2.30;;;;;;;;;;5027178;28;20441;-79
2023/07/19 13:57:20;;;;;;;2.20;2.10;;;;;;;;;;5022616;28;20469;-81
2023/07/19 13:59:48;;;;;;;4.83;2.40;;;;;;;;;;5030649;28;20454;-81
2023/07/19 14:02:15;;;;;;;3.93;3.10;;;;;;;;;;5036589;28;20476;-79
2023/07/19 14:04:41;;;;;;;2.87;2.60;;;;;;;;;;5037215;28;20445;-81
2023/07/19 14:07:07;;;;;;;3.20;1.50;;;;;;;;;;5022059;28;20532;-81
2023/07/19 14:09:34;;;;;;;4.93;1.40;;;;;;;;;;5025088;28;20504;-81
2023/07/19 14:12:02;;;;;;;3.37;1.60;;;;;;;;;;5034303;28;20854;-81
2023/07/19 14:14:28;;;;;;;1.37;1.20;;;;;;;;;;5028499;28;20450;-81
2023/07/19 14:16:56;;;;;;;2.43;1.53;;;;;;;;;;5019306;28;20469;-80
2023/07/19 14:19:22;;;;;;;2.20;1.40;;;;;;;;;;5028310;28;20469;-82
2023/07/19 14:21:49;;;;;;;1.40;1.30;;;;;;;;;;5035913;28;21071;-81
2023/07/19 14:24:15;;;;;;;2.00;1.03;;;;;;;;;;5033611;28;20452;-82
2023/07/19 14:26:43;;;;;;;3.70;1.20;;;;;;;;;;5035250;28;21003;-81
2023/07/19 14:29:10;;;;;;;2.40;1.60;;;;;;;;;;5036847;28;20469;-79
2023/07/19 14:31:36;;;;;;;0.73;0.73;;;;;;;;;;5034182;28;20499;-81
2023/07/19 14:34:04;;;;;;;3.80;1.37;;;;;;;;;;5034839;28;20452;-81
2023/07/19 14:36:30;;;;;;;1.57;1.20;;;;;;;;;;5035915;28;21017;-81
2023/07/19 14:38:56;;;;;;;2.00;0.90;;;;;;;;;;5032410;28;20472;-82
2023/07/19 14:41:23;;;;;;;1.83;1.10;;;;;;;;;;5029485;28;20470;-82
2023/07/19 14:43:50;;;;;;;3.57;1.33;;;;;;;;;;5032367;28;20456;-81
2023/07/19 14:46:17;;;;;;;1.10;0.73;;;;;;;;;;5035961;28;20473;-82
2023/07/19 14:48:44;;;;;;;2.30;1.00;;;;;;;;;;5038471;28;20460;-81
2023/07/19 14:51:11;;;;;;;4.00;0.90;;;;;;;;;;5021888;28;20466;-81
2023/07/19 14:53:38;;;;;;;1.40;1.03;;;;;;;;;;5034157;28;20445;-82
2023/07/19 14:56:04;;;;;;;1.43;0.80;;;;;;;;;;5030727;28;20464;-81
2023/07/19 14:58:31;;;;;;;3.53;1.00;;;;;;;;;;5032711;28;20464;-81
2023/07/19 15:00:57;;;;;;;0.93;0.60;;;;;;;;;;5029423;28;20470;-82
2023/07/19 15:03:23;;;;;;;1.40;1.00;;;;;;;;;;5026652;28;20969;-82
2023/07/19 15:05:50;;;;;;;7.63;1.60;;;;;;;;;;5028298;28;20469;-80
2023/07/19 15:08:17;;;;;;;3.30;1.60;;;;;;;;;;5036248;28;20998;-82